createdAt,value
2018-02-21T06:20:17.426Z,-3.50
2018-02-21T06:22:45.894Z,-3.60
2018-02-21T06:25:14.153Z,-3.60
2018-02-21T06:27:41.686Z,-3.70
2018-02-21T06:30:09.218Z,-3.60
2018-02-21T06:32:36.792Z,-3.60
2018-02-21T06:35:08.138Z,-3.60
2018-02-21T06:37:35.638Z,-3.60
2018-02-21T06:40:03.232Z,-3.50
2018-02-21T06:42:30.736Z,-3.50
2018-02-21T06:44:59.414Z,-3.50
2018-02-21T06:47:26.916Z,-3.50
2018-02-21T06:49:54.415Z,-3.40
2018-02-21T06:52:21.968Z,-3.30
2018-02-21T06:54:49.471Z,-3.30
2018-02-21T06:57:17.028Z,-3.10
2018-02-21T06:59:44.518Z,-3.10
2018-02-21T07:02:34.353Z,-3.10
2018-02-21T07:05:01.852Z,-3.10
2018-02-21T07:07:29.355Z,-3.00
2018-02-21T07:09:56.862Z,-3.00
2018-02-21T07:12:24.386Z,-3.00
2018-02-21T07:14:51.938Z,-2.80
2018-02-21T07:17:19.564Z,-2.70
2018-02-21T07:19:47.077Z,-2.70
2018-02-21T07:22:15.090Z,-2.50
2018-02-21T07:24:42.624Z,-2.40
2018-02-21T07:27:10.319Z,-2.30
2018-02-21T07:29:37.836Z,-2.20
2018-02-21T07:32:06.130Z,-2.20
2018-02-21T07:34:33.699Z,-2.30
2018-02-21T07:37:01.347Z,-2.20
2018-02-21T07:39:28.860Z,-2.20
2018-02-21T07:41:56.900Z,-2.20
2018-02-21T07:44:24.390Z,-2.00
2018-02-21T07:46:51.927Z,-1.80
2018-02-21T07:49:20.464Z,-1.70
2018-02-21T07:51:49.285Z,-1.70
2018-02-21T07:54:16.831Z,-1.80
2018-02-21T07:56:44.348Z,-1.70
2018-02-21T07:59:11.914Z,-1.70
2018-02-21T08:01:39.414Z,-1.80
2018-02-21T08:04:06.955Z,-1.70
2018-02-21T08:06:34.468Z,-1.40
2018-02-21T08:09:03.532Z,-0.80
2018-02-21T08:11:31.044Z,-0.80
2018-02-21T08:13:58.578Z,-0.60
2018-02-21T08:16:26.075Z,-0.40
2018-02-21T08:18:54.340Z,-0.20
2018-02-21T08:21:22.680Z,-0.30
2018-02-21T08:23:50.996Z,-0.30
2018-02-21T08:26:18.512Z,-0.10
2018-02-21T08:28:46.033Z,0.30
2018-02-21T08:31:13.549Z,0.70
2018-02-21T08:33:41.103Z,0.90
2018-02-21T08:36:08.617Z,0.90
2018-02-21T08:38:36.987Z,1.20
2018-02-21T08:41:04.482Z,1.70
2018-02-21T08:43:31.983Z,2.70
2018-02-21T08:45:59.544Z,3.10
2018-02-21T08:48:27.344Z,3.80
2018-02-21T08:50:54.827Z,4.30
2018-02-21T08:53:22.420Z,5.10
2018-02-21T08:55:49.929Z,5.80
2018-02-21T08:58:17.560Z,6.60
2018-02-21T09:00:45.408Z,6.60
2018-02-21T09:03:13.516Z,6.40
2018-02-21T09:05:41.057Z,6.30
2018-02-21T09:08:08.736Z,6.60
2018-02-21T09:10:36.375Z,7.10
2018-02-21T09:13:04.217Z,6.70
2018-02-21T09:15:31.711Z,7.40
2018-02-21T09:17:59.236Z,7.60
2018-02-21T09:20:26.752Z,7.90
2018-02-21T09:22:54.283Z,8.20
2018-02-21T09:25:21.772Z,8.50
2018-02-21T09:27:49.294Z,9.40
2018-02-21T09:30:16.806Z,9.50
2018-02-21T09:32:44.360Z,10.90
2018-02-21T09:35:11.868Z,11.10
2018-02-21T09:37:39.429Z,11.20
2018-02-21T09:40:07.089Z,11.40
2018-02-21T09:42:34.618Z,11.30
2018-02-21T09:45:02.927Z,11.50
2018-02-21T09:47:31.322Z,11.50
2018-02-21T09:49:58.848Z,11.80
2018-02-21T09:52:27.134Z,12.40
2018-02-21T09:54:55.450Z,12.20
2018-02-21T09:57:23.115Z,12.10
2018-02-21T09:59:50.646Z,11.00
2018-02-21T10:02:18.144Z,11.00
2018-02-21T10:04:46.202Z,11.20
2018-02-21T10:07:13.751Z,11.20
2018-02-21T10:09:41.241Z,11.10
2018-02-21T10:12:08.792Z,10.90
2018-02-21T10:14:36.520Z,11.20
2018-02-21T10:17:04.056Z,10.60
2018-02-21T10:19:31.546Z,9.20
2018-02-21T10:21:59.122Z,8.80
2018-02-21T10:24:26.646Z,7.80
2018-02-21T10:26:54.143Z,7.60
2018-02-21T10:29:21.676Z,6.90
2018-02-21T10:31:49.324Z,6.70
2018-02-21T10:34:16.929Z,6.70
2018-02-21T10:36:44.464Z,6.40
2018-02-21T10:39:12.220Z,7.30
2018-02-21T10:41:39.726Z,7.40
2018-02-21T10:44:07.423Z,7.80
2018-02-21T10:46:34.923Z,9.00
2018-02-21T10:49:02.448Z,8.50
2018-02-21T10:51:29.950Z,8.80
2018-02-21T10:53:57.511Z,9.40
2018-02-21T10:56:25.016Z,9.30
2018-02-21T10:58:52.516Z,10.10
2018-02-21T11:01:27.506Z,10.00
2018-02-21T11:03:55.003Z,10.60
2018-02-21T11:06:22.605Z,9.40
2018-02-21T11:08:50.187Z,9.60
2018-02-21T11:11:18.454Z,9.10
2018-02-21T11:13:46.111Z,9.10
2018-02-21T11:16:14.005Z,8.60
2018-02-21T11:18:41.651Z,8.20
2018-02-21T11:21:09.150Z,7.40
2018-02-21T11:23:36.673Z,6.60
2018-02-21T11:26:04.143Z,6.40
2018-02-21T11:28:31.690Z,6.10
2018-02-21T11:30:59.194Z,6.00
2018-02-21T11:33:26.703Z,5.40
2018-02-21T11:35:54.272Z,4.90
2018-02-21T11:38:21.827Z,4.60
2018-02-21T11:52:02.678Z,4.40
2018-02-21T11:54:30.178Z,4.50
2018-02-21T11:56:57.687Z,4.70
2018-02-21T11:59:25.263Z,4.50
2018-02-21T12:01:53.003Z,4.50
2018-02-21T12:04:20.502Z,4.70
2018-02-21T12:06:48.020Z,5.00
2018-02-21T12:09:15.657Z,5.10
2018-02-21T12:11:43.188Z,5.40
2018-02-21T12:14:10.742Z,5.30
2018-02-21T12:16:38.266Z,5.50
2018-02-21T12:19:05.749Z,5.20
2018-02-21T12:21:33.299Z,5.30
2018-02-21T12:24:00.833Z,5.50
2018-02-21T12:26:28.373Z,5.60
2018-02-21T12:28:55.869Z,5.80
2018-02-21T12:31:23.408Z,5.90
2018-02-21T12:33:50.921Z,5.90
2018-02-21T12:36:19.191Z,6.10
2018-02-21T12:38:52.308Z,6.00
2018-02-21T12:41:25.347Z,6.20
2018-02-21T12:43:52.865Z,6.40
2018-02-21T12:46:20.463Z,6.50
2018-02-21T12:48:47.980Z,6.70
2018-02-21T12:51:15.466Z,7.00
2018-02-21T12:53:42.988Z,7.20
2018-02-21T12:56:10.504Z,7.20
2018-02-21T12:58:38.005Z,7.20
2018-02-21T13:01:05.534Z,7.40
2018-02-21T13:03:33.044Z,6.90
2018-02-21T13:06:00.579Z,6.20
2018-02-21T13:08:28.065Z,5.90
2018-02-21T13:10:55.577Z,5.50
2018-02-21T13:13:23.844Z,4.80
2018-02-21T13:15:51.345Z,4.80
2018-02-21T13:18:18.911Z,4.50
2018-02-21T13:20:46.435Z,4.30
2018-02-21T13:23:14.748Z,4.00
2018-02-21T13:25:42.589Z,4.00
2018-02-21T13:28:10.152Z,4.00
2018-02-21T14:04:12.617Z,3.00
2018-02-21T14:06:40.126Z,2.90
2018-02-21T14:09:07.731Z,2.90
2018-02-21T14:11:35.336Z,2.90
2018-02-21T14:14:02.880Z,3.00
2018-02-21T14:16:30.464Z,3.20
2018-02-21T14:18:57.981Z,3.20
2018-02-21T14:21:26.033Z,3.10
2018-02-21T14:23:54.343Z,2.90
2018-02-21T14:26:21.856Z,2.90
2018-02-21T14:28:49.462Z,3.00
2018-02-21T14:31:16.999Z,3.00
2018-02-21T14:33:44.507Z,2.80
2018-02-21T14:36:12.235Z,2.90
2018-02-21T14:38:39.794Z,2.90
2018-02-21T14:41:07.316Z,2.80
2018-02-21T14:43:34.823Z,2.70
2018-02-21T14:46:02.930Z,2.60
2018-02-21T14:48:30.433Z,2.50
2018-02-21T14:50:58.713Z,2.40
2018-02-21T14:53:26.302Z,2.30
2018-02-21T14:55:53.813Z,2.30
2018-02-21T14:58:22.095Z,2.30
2018-02-21T15:00:50.478Z,2.40
2018-02-21T15:03:17.980Z,2.40
2018-02-21T15:05:45.492Z,2.50
2018-02-21T15:08:13.062Z,2.60
2018-02-21T15:10:40.581Z,2.70
2018-02-21T15:13:09.742Z,2.90
2018-02-21T15:15:37.375Z,2.90
2018-02-21T15:18:04.935Z,2.80
2018-02-21T15:20:32.618Z,2.70
2018-02-21T15:23:00.137Z,2.50
2018-02-21T15:25:27.702Z,2.50
2018-02-21T15:27:55.234Z,2.50
2018-02-21T15:30:23.336Z,2.50
2018-02-21T15:32:50.992Z,2.60
2018-02-21T15:35:24.644Z,2.60
2018-02-21T15:37:52.183Z,2.50
2018-02-21T15:40:19.947Z,2.50
2018-02-21T15:42:47.467Z,2.40
2018-02-21T15:45:15.054Z,2.40
2018-02-21T15:47:43.305Z,2.10
2018-02-21T15:50:10.900Z,2.10
2018-02-21T15:52:38.423Z,1.90
2018-02-21T15:55:06.696Z,1.70
2018-02-21T15:57:34.195Z,1.60
2018-02-21T16:00:01.720Z,1.60
2018-02-21T16:02:29.232Z,1.60
2018-02-21T16:04:58.962Z,1.50
2018-02-21T16:07:27.307Z,1.40
2018-02-21T16:09:54.822Z,1.30
2018-02-21T16:12:22.356Z,1.30
2018-02-21T16:14:49.861Z,1.30
2018-02-21T16:17:17.377Z,1.20
2018-02-21T16:19:44.913Z,1.20
2018-02-21T16:22:12.409Z,1.20
2018-02-21T16:24:39.941Z,1.10
2018-02-21T16:27:08.668Z,1.10
2018-02-21T16:29:36.968Z,0.90
2018-02-21T16:32:05.405Z,0.90
2018-02-21T16:34:33.695Z,0.70
2018-02-21T16:37:01.197Z,0.70
2018-02-21T16:39:28.732Z,0.60
2018-02-21T16:41:56.235Z,0.50
2018-02-21T16:44:23.757Z,0.50
2018-02-21T16:46:51.326Z,0.40
2018-02-21T16:49:18.846Z,0.40
2018-02-21T16:51:46.365Z,0.30
2018-02-21T16:54:16.734Z,0.30
2018-02-21T16:56:44.294Z,0.20
2018-02-21T16:59:11.849Z,0.20
2018-02-21T17:01:39.370Z,0.20
2018-02-21T17:04:07.097Z,0.10
2018-02-21T17:06:34.622Z,0.10
2018-02-21T17:09:02.985Z,0.10
2018-02-21T17:11:31.247Z,0.10
2018-02-21T17:13:58.778Z,0.10
2018-02-21T17:16:26.303Z,0.10
2018-02-21T17:18:53.982Z,0.10
2018-02-21T17:21:21.510Z,0.00
2018-02-21T17:23:49.787Z,0.00
2018-02-21T17:26:18.134Z,0.00
2018-02-21T17:28:45.756Z,0.10
2018-02-21T17:31:13.287Z,0.00
2018-02-21T17:33:40.832Z,0.10
2018-02-21T17:36:09.115Z,0.00
2018-02-21T17:38:37.426Z,0.00
2018-02-21T17:41:10.572Z,0.00
2018-02-21T17:43:38.871Z,0.00
2018-02-21T17:46:06.378Z,0.00
2018-02-21T17:48:33.921Z,0.00
2018-02-21T17:51:01.457Z,0.00
2018-02-21T17:53:28.974Z,0.00
2018-02-21T17:55:56.688Z,0.00
2018-02-21T17:58:24.258Z,-0.10
2018-02-21T18:00:51.808Z,-0.10
2018-02-21T18:03:19.340Z,-0.10
2018-02-21T18:05:46.853Z,-0.10
2018-02-21T18:08:14.567Z,-0.10
2018-02-21T18:10:42.143Z,-0.20
2018-02-21T18:13:09.645Z,-0.20
2018-02-21T18:15:37.174Z,-0.20
2018-02-21T18:18:04.692Z,-0.20
2018-02-21T18:20:32.575Z,-0.30
2018-02-21T18:23:00.245Z,-0.30
2018-02-21T18:25:27.812Z,-0.30
2018-02-21T18:27:55.315Z,-0.30
2018-02-21T18:30:22.923Z,-0.30
2018-02-21T18:32:50.448Z,-0.30
2018-02-21T18:35:18.709Z,-0.40
2018-02-21T18:37:46.235Z,-0.40
2018-02-21T18:40:13.744Z,-0.40
2018-02-21T18:42:42.046Z,-0.40
2018-02-21T18:45:09.554Z,-0.40
2018-02-21T18:47:37.244Z,-0.40
2018-02-21T18:50:05.580Z,-0.50
2018-02-21T18:52:33.087Z,-0.50
2018-02-21T18:55:00.587Z,-0.50
2018-02-21T18:57:28.105Z,-0.50
2018-02-21T18:59:55.684Z,-0.50
2018-02-21T19:02:23.191Z,-0.50
2018-02-21T19:04:50.713Z,-0.50
2018-02-21T19:07:18.218Z,-0.50
2018-02-21T19:09:46.509Z,-0.50
2018-02-21T19:12:14.039Z,-0.50
2018-02-21T19:14:41.550Z,-0.50
2018-02-21T19:17:09.054Z,-0.50
2018-02-21T19:19:37.362Z,-0.50
2018-02-21T19:22:04.863Z,-0.60
2018-02-21T19:24:32.388Z,-0.50
2018-02-21T19:27:00.573Z,-0.50
2018-02-21T19:29:28.207Z,-0.50
2018-02-21T19:31:56.131Z,-0.60
2018-02-21T19:34:23.650Z,-0.60
2018-02-21T19:36:51.182Z,-0.70
2018-02-21T19:39:19.326Z,-0.70
2018-02-21T19:41:46.857Z,-0.80
2018-02-21T19:44:15.308Z,-0.90
2018-02-21T19:46:43.797Z,-0.90
2018-02-21T19:49:11.338Z,-1.00
2018-02-21T19:51:39.668Z,-1.10
2018-02-21T19:54:07.170Z,-1.10
2018-02-21T19:56:35.561Z,-1.20
2018-02-21T19:59:03.858Z,-1.30
2018-02-21T20:01:31.354Z,-1.30
2018-02-21T20:04:01.583Z,-1.30
2018-02-21T20:06:29.101Z,-1.40
2018-02-21T20:08:56.661Z,-1.40
2018-02-21T20:11:25.167Z,-1.50
2018-02-21T20:13:52.714Z,-1.50
2018-02-21T20:16:20.243Z,-1.60
2018-02-21T20:18:47.772Z,-1.60
2018-02-21T20:21:17.600Z,-1.70
2018-02-21T20:23:45.138Z,-1.70
2018-02-21T20:26:14.307Z,-1.70
2018-02-21T20:28:43.759Z,-1.80
2018-02-21T20:31:12.100Z,-1.80
2018-02-21T20:33:39.667Z,-1.80
2018-02-21T20:36:08.223Z,-1.90
2018-02-21T20:38:36.173Z,-1.90
2018-02-21T20:41:04.341Z,-1.90
2018-02-21T20:43:31.900Z,-1.90
2018-02-21T20:46:00.697Z,-2.00
2018-02-21T20:48:28.220Z,-2.00
2018-02-21T20:51:00.345Z,-2.00
2018-02-21T20:53:27.920Z,-2.00
2018-02-21T20:55:55.427Z,-2.00
2018-02-21T20:58:23.792Z,-2.00
2018-02-21T21:00:51.288Z,-1.90
2018-02-21T21:03:19.781Z,-1.90
2018-02-21T21:05:48.018Z,-1.90
2018-02-21T21:08:15.576Z,-1.90
2018-02-21T21:10:43.113Z,-1.90
2018-02-21T21:13:11.576Z,-1.80
2018-02-21T21:15:39.197Z,-1.90
2018-02-21T21:18:06.728Z,-1.90
2018-02-21T21:20:34.287Z,-1.80
2018-02-21T21:23:02.559Z,-1.80
2018-02-21T21:25:30.111Z,-1.80
2018-02-21T21:27:57.692Z,-1.80
2018-02-21T21:30:26.094Z,-1.80
2018-02-21T21:32:53.610Z,-1.80
2018-02-21T21:35:21.935Z,-1.80
2018-02-21T21:37:49.777Z,-1.80
2018-02-21T21:40:17.321Z,-1.80
2018-02-21T21:42:44.846Z,-1.80
2018-02-21T21:45:12.452Z,-1.80
2018-02-21T21:47:40.091Z,-1.80
2018-02-21T21:50:07.690Z,-1.80
2018-02-21T21:52:35.196Z,-1.90
2018-02-21T21:55:02.733Z,-1.90
2018-02-21T21:57:30.223Z,-2.00
2018-02-21T21:59:58.633Z,-2.00
2018-02-21T22:02:26.160Z,-2.00
2018-02-21T22:04:53.689Z,-2.00
2018-02-21T22:07:21.203Z,-2.00
2018-02-21T22:09:48.736Z,-2.00
2018-02-21T22:12:17.042Z,-2.10
2018-02-21T22:14:44.754Z,-2.10
2018-02-21T22:17:12.255Z,-2.10
2018-02-21T22:19:39.774Z,-2.10
2018-02-21T22:22:08.036Z,-2.20
2018-02-21T22:24:35.538Z,-2.20
2018-02-21T22:27:03.043Z,-2.20
2018-02-21T22:29:30.559Z,-2.20
